createdAt,value
2019-05-07T00:01:27.834Z,54.18
2019-05-07T00:03:55.314Z,54.15
2019-05-07T00:06:23.209Z,54.41
2019-05-07T00:08:52.266Z,52.49
2019-05-07T00:11:22.204Z,53.84
2019-05-07T00:13:48.851Z,52.92
2019-05-07T00:16:16.231Z,53.14
2019-05-07T00:18:43.500Z,53.73
2019-05-07T00:21:12.616Z,52.92
2019-05-07T00:23:52.659Z,52.22
2019-05-07T00:26:22.424Z,52.93
2019-05-07T00:28:49.301Z,51.91
2019-05-07T00:31:16.492Z,52.85
2019-05-07T00:33:43.864Z,51.88
2019-05-07T00:36:18.529Z,53.54
2019-05-07T00:38:51.968Z,54.99
2019-05-07T00:41:52.236Z,55.74
2019-05-07T00:44:21.978Z,55.00
2019-05-07T00:46:49.236Z,55.43
2019-05-07T00:49:17.251Z,55.11
2019-05-07T00:51:44.633Z,55.21
2019-05-07T00:54:12.336Z,53.26
2019-05-07T00:56:39.713Z,53.47
2019-05-07T00:59:07.003Z,54.55
2019-05-07T01:01:35.079Z,53.95
2019-05-07T01:04:02.908Z,53.34
2019-05-07T01:06:30.291Z,52.76
2019-05-07T01:08:57.650Z,53.93
2019-05-07T01:11:24.826Z,54.19
2019-05-07T01:13:52.488Z,54.53
2019-05-07T01:16:22.048Z,55.38
2019-05-07T01:18:48.884Z,55.11
2019-05-07T01:21:16.246Z,53.44
2019-05-07T01:23:43.523Z,54.33
2019-05-07T01:26:12.415Z,56.04
2019-05-07T01:28:58.219Z,55.27
2019-05-07T01:31:29.048Z,53.74
2019-05-07T01:34:20.366Z,56.11
2019-05-07T01:36:47.629Z,56.55
2019-05-07T01:39:14.776Z,55.17
2019-05-07T01:41:42.325Z,54.40
2019-05-07T01:44:09.479Z,54.68
2019-05-07T01:46:36.648Z,53.71
2019-05-07T01:49:04.038Z,52.91
2019-05-07T01:51:42.102Z,54.93
2019-05-07T01:54:09.083Z,54.96
2019-05-07T01:56:36.314Z,55.02
2019-05-07T01:59:03.929Z,53.46
2019-05-07T02:01:33.175Z,56.92
2019-05-07T02:04:07.794Z,55.86
2019-05-07T02:07:02.646Z,54.12
2019-05-07T02:09:52.473Z,53.88
2019-05-07T02:12:24.087Z,56.03
2019-05-07T02:14:53.053Z,55.07
2019-05-07T02:17:22.673Z,54.67
2019-05-07T02:19:49.866Z,55.14
2019-05-07T02:22:17.227Z,54.83
2019-05-07T02:24:44.377Z,55.59
2019-05-07T02:27:12.613Z,54.58
2019-05-07T02:29:40.091Z,56.96
2019-05-07T02:32:07.387Z,54.56
2019-05-07T02:34:34.814Z,56.91
2019-05-07T02:37:04.335Z,59.44
2019-05-07T02:39:44.317Z,59.29
2019-05-07T02:42:13.010Z,57.35
2019-05-07T02:44:59.342Z,55.47
2019-05-07T02:47:27.560Z,58.37
2019-05-07T02:50:02.821Z,60.95
2019-05-07T02:53:06.501Z,57.41
2019-05-07T02:55:45.160Z,57.93
2019-05-07T02:58:13.774Z,60.25
2019-05-07T03:00:43.434Z,61.67
2019-05-07T03:03:13.813Z,61.96
2019-05-07T03:05:43.146Z,60.14
2019-05-07T03:08:13.415Z,60.50
2019-05-07T03:10:43.156Z,58.70
2019-05-07T03:13:09.801Z,59.76
2019-05-07T03:15:46.358Z,60.26
2019-05-07T03:18:16.727Z,60.50
2019-05-07T03:20:54.059Z,59.85
2019-05-07T03:23:25.732Z,60.83
2019-05-07T03:25:57.956Z,60.80
2019-05-07T03:28:25.835Z,61.20
2019-05-07T03:31:05.986Z,60.26
2019-05-07T03:34:07.562Z,59.94
2019-05-07T03:36:48.563Z,59.50
2019-05-07T03:39:16.109Z,60.24
2019-05-07T03:41:43.973Z,58.89
2019-05-07T03:44:33.759Z,60.53
2019-05-07T03:47:18.088Z,61.55
2019-05-07T03:49:45.444Z,59.43
2019-05-07T03:52:13.652Z,60.34
2019-05-07T03:54:43.027Z,61.88
2019-05-07T03:57:11.537Z,61.73
2019-05-07T03:59:39.494Z,61.88
2019-05-07T04:02:10.169Z,60.28
2019-05-07T04:04:37.523Z,60.39
2019-05-07T04:07:05.200Z,59.73
2019-05-07T04:09:33.349Z,59.78
2019-05-07T04:12:03.584Z,60.46
2019-05-07T04:14:29.941Z,61.87
2019-05-07T04:17:13.303Z,60.82
2019-05-07T04:19:26.355Z,59.62
2019-05-07T04:21:53.618Z,60.18
2019-05-07T04:24:33.034Z,61.50
2019-05-07T04:27:06.265Z,60.23
2019-05-07T04:29:35.063Z,61.70
2019-05-07T04:32:03.334Z,61.43
2019-05-07T04:34:47.380Z,61.30
2019-05-07T04:37:17.377Z,62.91
2019-05-07T04:39:53.885Z,61.62
2019-05-07T04:42:24.332Z,61.86
2019-05-07T04:44:53.882Z,61.37
2019-05-07T04:47:34.527Z,62.79
2019-05-07T04:49:49.517Z,62.71
2019-05-07T04:52:24.227Z,62.47
2019-05-07T04:54:52.844Z,61.03
2019-05-07T04:57:26.514Z,60.53
2019-05-07T04:59:57.861Z,60.53
2019-05-07T05:02:43.526Z,59.44
2019-05-07T05:05:12.908Z,60.32
2019-05-07T05:07:42.878Z,59.61
2019-05-07T05:10:10.202Z,59.70
2019-05-07T05:12:37.463Z,60.56
2019-05-07T05:15:05.156Z,60.45
2019-05-07T05:17:46.233Z,57.99
2019-05-07T05:20:03.648Z,58.58
2019-05-07T05:22:53.494Z,60.01
2019-05-07T05:25:25.903Z,56.54
2019-05-07T05:27:53.058Z,57.99
2019-05-07T05:30:27.763Z,56.63
2019-05-07T05:32:55.005Z,56.61
2019-05-07T05:35:22.381Z,56.71
2019-05-07T05:37:49.538Z,55.00
2019-05-07T05:40:17.919Z,54.10
2019-05-07T05:42:52.534Z,54.03
2019-05-07T05:45:39.512Z,53.46
2019-05-07T05:48:08.410Z,53.54
2019-05-07T05:50:43.993Z,53.10
2019-05-07T05:53:33.809Z,51.91
2019-05-07T05:56:05.423Z,52.04
2019-05-07T05:58:43.086Z,51.59
2019-05-07T06:01:39.243Z,52.30
2019-05-07T06:04:35.289Z,51.61
2019-05-07T06:07:14.795Z,51.99
2019-05-07T06:09:54.563Z,51.88
2019-05-07T06:12:33.866Z,51.86
2019-05-07T06:15:30.044Z,52.06
2019-05-07T06:18:21.123Z,51.58
2019-05-07T06:20:52.169Z,51.61
2019-05-07T06:23:28.701Z,51.22
2019-05-07T06:25:56.138Z,51.20
2019-05-07T06:28:23.544Z,50.99
2019-05-07T06:30:52.743Z,50.91
2019-05-07T06:33:22.348Z,50.57
2019-05-07T06:35:52.324Z,50.48
2019-05-07T06:38:21.974Z,50.33
2019-05-07T06:41:15.307Z,50.43
2019-05-07T06:43:46.826Z,50.09
2019-05-07T06:46:16.378Z,49.12
2019-05-07T06:48:47.651Z,49.85
2019-05-07T06:51:17.384Z,49.77
2019-05-07T06:53:44.507Z,49.40
2019-05-07T06:56:12.311Z,49.58
2019-05-07T06:58:45.582Z,49.05
2019-05-07T07:01:32.281Z,48.27
2019-05-07T07:04:04.636Z,48.43
2019-05-07T07:06:39.067Z,47.98
2019-05-07T07:09:35.573Z,47.41
2019-05-07T07:12:06.649Z,45.72
2019-05-07T07:14:34.029Z,47.04
2019-05-07T07:17:02.274Z,46.33
2019-05-07T07:19:32.498Z,45.34
2019-05-07T07:22:02.367Z,45.69
2019-05-07T07:24:29.526Z,45.70
2019-05-07T07:26:57.231Z,42.88
2019-05-07T07:29:27.817Z,44.18
2019-05-07T07:31:58.159Z,44.72
2019-05-07T07:34:27.462Z,43.59
2019-05-07T07:37:08.247Z,42.88
2019-05-07T07:39:32.292Z,41.51
2019-05-07T07:42:02.939Z,43.86
2019-05-07T07:44:32.851Z,41.79
2019-05-07T07:47:02.335Z,42.70
2019-05-07T07:49:29.389Z,42.35
2019-05-07T07:51:57.712Z,41.82
2019-05-07T07:54:25.860Z,41.69
2019-05-07T07:57:02.471Z,41.50
2019-05-07T07:59:52.913Z,37.77
2019-05-07T08:02:28.991Z,40.17
2019-05-07T08:04:56.542Z,40.52
2019-05-07T08:07:24.007Z,41.12
2019-05-07T08:09:52.020Z,40.13
2019-05-07T08:12:22.169Z,39.83
2019-05-07T08:14:51.886Z,39.27
2019-05-07T08:17:19.419Z,38.69
2019-05-07T08:19:46.851Z,38.65
2019-05-07T08:22:14.327Z,38.98
2019-05-07T08:24:42.596Z,38.10
2019-05-07T08:27:14.696Z,38.48
2019-05-07T08:29:39.961Z,38.15
2019-05-07T08:32:36.642Z,35.22
2019-05-07T08:35:23.782Z,38.17
2019-05-07T08:37:52.666Z,38.26
2019-05-07T08:40:22.041Z,37.33
2019-05-07T08:42:52.512Z,36.80
2019-05-07T08:45:40.069Z,36.45
2019-05-07T08:48:12.767Z,37.11
2019-05-07T08:50:41.941Z,37.15
2019-05-07T08:53:09.499Z,36.50
2019-05-07T08:55:36.944Z,36.12
2019-05-07T08:58:04.707Z,35.82
2019-05-07T09:00:32.625Z,36.37
2019-05-07T09:03:01.670Z,36.09
2019-05-07T09:05:29.258Z,35.30
2019-05-07T09:07:59.102Z,35.35
2019-05-07T09:10:26.919Z,35.23
2019-05-07T09:12:54.391Z,34.95
2019-05-07T09:15:22.665Z,35.74
2019-05-07T09:17:50.240Z,35.30
2019-05-07T09:20:18.316Z,34.84
2019-05-07T09:22:45.836Z,34.42
2019-05-07T09:25:13.729Z,34.77
2019-05-07T09:27:43.756Z,34.75
2019-05-07T09:30:37.906Z,33.69
2019-05-07T09:33:16.436Z,33.29
2019-05-07T09:35:46.826Z,33.53
2019-05-07T09:38:14.223Z,33.51
2019-05-07T09:40:42.139Z,33.61
2019-05-07T09:43:15.555Z,32.69
2019-05-07T09:45:42.961Z,32.72
2019-05-07T09:48:11.990Z,33.21
2019-05-07T09:50:42.732Z,33.39
2019-05-07T09:53:12.552Z,32.63
2019-05-07T09:55:39.618Z,32.38
2019-05-07T09:58:07.166Z,33.18
2019-05-07T10:00:37.604Z,33.19
2019-05-07T10:03:15.523Z,32.05
2019-05-07T10:05:44.643Z,30.44
2019-05-07T10:08:13.421Z,31.12
2019-05-07T10:10:46.144Z,31.35
2019-05-07T10:13:25.104Z,31.02
2019-05-07T10:15:53.063Z,31.18
2019-05-07T10:18:22.706Z,30.62
2019-05-07T10:20:52.165Z,30.33
2019-05-07T10:23:19.776Z,29.92
2019-05-07T10:25:52.293Z,29.43
2019-05-07T10:28:28.963Z,29.16
2019-05-07T10:30:56.774Z,28.95
2019-05-07T10:33:24.516Z,28.73
2019-05-07T10:35:52.974Z,29.28
2019-05-07T10:38:21.832Z,29.01
2019-05-07T10:40:49.503Z,28.72
2019-05-07T10:43:16.949Z,28.10
2019-05-07T10:46:24.681Z,28.35
2019-05-07T10:49:12.313Z,28.06
2019-05-07T10:51:39.874Z,28.91
2019-05-07T10:54:07.419Z,28.78
2019-05-07T10:56:34.875Z,28.67
2019-05-07T10:59:02.885Z,29.34
2019-05-07T11:01:37.826Z,28.66
2019-05-07T11:04:05.555Z,27.89
2019-05-07T11:06:33.045Z,26.96
2019-05-07T11:09:00.426Z,26.53
2019-05-07T11:11:28.359Z,25.35
2019-05-07T11:13:56.212Z,25.10
2019-05-07T11:16:25.869Z,22.38
2019-05-07T11:18:53.170Z,23.69
2019-05-07T11:21:29.803Z,23.47
2019-05-07T11:23:59.039Z,23.89
2019-05-07T11:26:27.117Z,24.76
2019-05-07T11:28:54.380Z,26.25
2019-05-07T11:31:22.652Z,26.34
2019-05-07T11:33:51.999Z,26.22
2019-05-07T11:36:19.584Z,26.92
2019-05-07T11:38:47.279Z,26.92
2019-05-07T11:41:15.364Z,27.43
2019-05-07T11:44:01.761Z,28.12
2019-05-07T11:46:48.764Z,28.03
2019-05-07T11:49:22.757Z,27.52
2019-05-07T11:51:55.375Z,28.18
2019-05-07T11:54:22.637Z,29.35
2019-05-07T11:56:51.868Z,29.17
2019-05-07T11:59:18.855Z,29.91
2019-05-07T12:01:52.598Z,30.28
2019-05-07T12:04:19.404Z,30.30
2019-05-07T12:06:46.753Z,30.94
2019-05-07T12:09:13.914Z,30.37
2019-05-07T12:11:42.557Z,29.44
2019-05-07T12:14:12.156Z,30.68
2019-05-07T12:16:39.437Z,30.49
2019-05-07T12:19:06.921Z,30.76
2019-05-07T12:21:34.490Z,28.81
2019-05-07T12:24:02.254Z,29.85
2019-05-07T12:26:32.097Z,29.92
2019-05-07T12:28:59.391Z,29.49
2019-05-07T12:31:53.000Z,30.52
2019-05-07T12:34:25.023Z,29.81
2019-05-07T12:36:52.499Z,28.29
2019-05-07T12:39:21.815Z,27.25
2019-05-07T12:41:49.266Z,29.03
2019-05-07T12:44:16.762Z,28.68
2019-05-07T12:46:44.473Z,28.12
2019-05-07T12:49:12.189Z,28.40
2019-05-07T12:52:02.158Z,27.09
2019-05-07T12:54:47.302Z,27.51
2019-05-07T12:57:17.198Z,27.58
2019-05-07T12:59:44.855Z,26.92
2019-05-07T13:02:44.093Z,26.75
2019-05-07T13:05:11.854Z,27.14
2019-05-07T13:07:49.819Z,26.83
2019-05-07T13:10:17.098Z,26.52
2019-05-07T13:12:44.360Z,26.91
2019-05-07T13:15:23.871Z,25.50
2019-05-07T13:17:42.175Z,26.11
2019-05-07T13:20:12.075Z,26.41
2019-05-07T13:22:42.729Z,25.86
2019-05-07T13:25:10.706Z,27.24
2019-05-07T13:27:40.113Z,26.77
2019-05-07T13:30:07.477Z,25.22
2019-05-07T13:32:35.573Z,26.08
2019-05-07T13:35:03.986Z,26.21
2019-05-07T13:37:33.499Z,26.13
2019-05-07T13:40:08.840Z,23.98
2019-05-07T13:42:43.950Z,26.46
2019-05-07T13:45:24.109Z,26.35
2019-05-07T13:48:00.113Z,26.80
2019-05-07T13:50:27.483Z,26.45
2019-05-07T13:52:54.859Z,25.93
2019-05-07T13:55:22.263Z,26.17
2019-05-07T13:57:52.444Z,26.22
2019-05-07T14:00:26.941Z,26.85
2019-05-07T14:02:55.016Z,27.19
2019-05-07T14:05:28.294Z,26.80
2019-05-07T14:07:56.221Z,27.55
2019-05-07T14:10:26.268Z,27.22
2019-05-07T14:13:07.414Z,26.60
2019-05-07T14:15:23.321Z,27.51
2019-05-07T14:17:55.059Z,26.42
2019-05-07T14:20:24.894Z,26.94
2019-05-07T14:22:54.331Z,27.36
2019-05-07T14:25:21.882Z,27.23
2019-05-07T14:27:52.618Z,27.56
2019-05-07T14:30:21.744Z,27.13
2019-05-07T14:33:01.776Z,27.20
2019-05-07T14:35:36.295Z,27.52
2019-05-07T14:38:08.369Z,26.52
2019-05-07T14:40:39.208Z,27.41
2019-05-07T14:43:21.842Z,27.90
2019-05-07T14:45:49.067Z,27.42
2019-05-07T14:48:17.292Z,27.14
2019-05-07T14:50:45.108Z,27.98
2019-05-07T14:53:13.096Z,27.43
2019-05-07T14:55:41.852Z,27.76
2019-05-07T14:58:09.431Z,27.26
2019-05-07T15:00:45.187Z,27.78
2019-05-07T15:03:12.750Z,27.57
2019-05-07T15:05:43.539Z,26.81
2019-05-07T15:08:14.429Z,28.25
2019-05-07T15:10:42.791Z,27.04
2019-05-07T15:13:12.782Z,27.74
2019-05-07T15:15:40.987Z,26.65
2019-05-07T15:18:18.761Z,27.99
2019-05-07T15:20:46.073Z,27.44
2019-05-07T15:23:27.934Z,27.82
2019-05-07T15:25:56.720Z,27.15
2019-05-07T15:28:27.397Z,27.09
2019-05-07T15:31:20.172Z,27.46
2019-05-07T15:33:48.018Z,27.71
2019-05-07T15:36:15.524Z,27.96
2019-05-07T15:38:48.411Z,27.90
2019-05-07T15:41:15.911Z,27.87
2019-05-07T15:43:46.299Z,28.46
2019-05-07T15:46:13.686Z,28.22
2019-05-07T15:48:42.037Z,28.42
2019-05-07T15:51:09.439Z,28.62
2019-05-07T15:53:43.337Z,28.77
2019-05-07T15:56:12.475Z,28.52
2019-05-07T15:58:46.299Z,27.96
2019-05-07T16:01:14.483Z,28.84
2019-05-07T16:03:44.951Z,29.19
2019-05-07T16:06:13.024Z,28.99
2019-05-07T16:08:49.236Z,29.49
2019-05-07T16:11:19.718Z,29.53
2019-05-07T16:14:12.596Z,29.44
2019-05-07T16:16:43.662Z,29.26
2019-05-07T16:19:16.334Z,29.86
2019-05-07T16:21:45.814Z,29.63
2019-05-07T16:24:13.653Z,29.83
2019-05-07T16:26:45.653Z,29.79
2019-05-07T16:29:14.066Z,30.33
2019-05-07T16:31:48.943Z,29.76
2019-05-07T16:34:17.763Z,29.80
2019-05-07T16:36:45.442Z,29.01
2019-05-07T16:39:13.267Z,29.77
2019-05-07T16:41:42.301Z,29.42
2019-05-07T16:44:12.021Z,29.90
2019-05-07T16:46:39.125Z,29.54
2019-05-07T16:49:06.450Z,29.18
2019-05-07T16:51:33.861Z,30.21
2019-05-07T16:54:03.247Z,30.49
2019-05-07T16:56:30.417Z,30.03
2019-05-07T16:59:03.986Z,30.23
2019-05-07T17:01:32.459Z,30.09
2019-05-07T17:04:03.382Z,29.63
2019-05-07T17:06:32.179Z,29.68
2019-05-07T17:09:13.212Z,30.63
2019-05-07T17:11:40.576Z,30.50
2019-05-07T17:14:07.839Z,29.92
2019-05-07T17:16:35.343Z,30.13
2019-05-07T17:19:05.899Z,30.42
2019-05-07T17:21:35.820Z,28.98
2019-05-07T17:24:06.461Z,30.50
2019-05-07T17:26:33.890Z,30.68
2019-05-07T17:29:02.631Z,30.32
2019-05-07T17:31:31.867Z,30.19
2019-05-07T17:33:59.144Z,30.35
2019-05-07T17:36:26.533Z,30.39
2019-05-07T17:38:54.856Z,30.91
2019-05-07T17:41:27.041Z,30.38
2019-05-07T17:43:52.593Z,31.15
2019-05-07T17:46:23.008Z,31.45
2019-05-07T17:48:53.253Z,31.24
2019-05-07T17:51:42.181Z,31.12
2019-05-07T17:54:15.539Z,31.29
2019-05-07T17:56:43.205Z,32.68
2019-05-07T17:59:13.263Z,32.77
2019-05-07T18:02:01.919Z,33.50
2019-05-07T18:04:33.777Z,33.88
2019-05-07T18:07:02.836Z,34.68
2019-05-07T18:09:31.748Z,34.32
2019-05-07T18:11:58.877Z,35.64
2019-05-07T18:14:32.143Z,35.22
2019-05-07T18:17:15.658Z,35.77
2019-05-07T18:19:44.945Z,35.81
2019-05-07T18:22:16.039Z,36.31
2019-05-07T18:24:43.574Z,36.76
2019-05-07T18:27:17.452Z,37.52
2019-05-07T18:29:44.866Z,38.13
2019-05-07T18:32:21.754Z,37.93
2019-05-07T18:34:52.027Z,37.91
2019-05-07T18:37:19.929Z,37.83
2019-05-07T18:39:47.080Z,38.31
2019-05-07T18:42:16.785Z,38.38
2019-05-07T18:44:44.456Z,39.08
2019-05-07T18:47:12.960Z,39.60
2019-05-07T18:49:44.751Z,39.37
2019-05-07T18:52:14.062Z,40.13
2019-05-07T18:54:42.833Z,40.03
2019-05-07T18:57:11.009Z,40.21
2019-05-07T18:59:38.716Z,41.73
2019-05-07T19:02:06.789Z,41.67
2019-05-07T19:04:34.804Z,41.20
2019-05-07T19:07:02.958Z,42.56
2019-05-07T19:09:32.496Z,43.48
2019-05-07T19:12:00.417Z,43.61
2019-05-07T19:14:38.292Z,44.63
2019-05-07T19:17:05.729Z,44.12
2019-05-07T19:19:33.263Z,43.32
2019-05-07T19:22:02.166Z,44.20
2019-05-07T19:24:43.722Z,43.94
2019-05-07T19:26:59.265Z,44.34
2019-05-07T19:29:28.726Z,45.40
2019-05-07T19:31:56.172Z,45.08
2019-05-07T19:34:23.762Z,46.07
2019-05-07T19:36:52.076Z,45.38
2019-05-07T19:39:20.431Z,46.04
2019-05-07T19:41:47.854Z,47.83
2019-05-07T19:44:15.783Z,47.23
2019-05-07T19:46:44.093Z,47.03
2019-05-07T19:49:13.150Z,47.69
2019-05-07T19:51:42.690Z,49.06
2019-05-07T19:54:10.156Z,48.43
2019-05-07T19:56:38.509Z,49.74
2019-05-07T19:59:06.407Z,48.87
2019-05-07T20:01:46.419Z,50.74
2019-05-07T20:04:15.296Z,50.26
2019-05-07T20:06:43.687Z,51.25
2019-05-07T20:09:15.423Z,50.46
2019-05-07T20:11:47.268Z,50.64
2019-05-07T20:14:17.895Z,50.17
2019-05-07T20:16:45.774Z,50.50
2019-05-07T20:19:13.852Z,50.76
2019-05-07T20:21:41.501Z,52.18
2019-05-07T20:24:08.939Z,50.27
2019-05-07T20:26:36.480Z,52.86
2019-05-07T20:29:04.258Z,53.40
2019-05-07T20:31:33.140Z,52.80
2019-05-07T20:34:02.330Z,53.90
2019-05-07T20:36:29.877Z,54.28
2019-05-07T20:38:57.304Z,53.26
2019-05-07T20:41:24.639Z,53.63
2019-05-07T20:43:52.452Z,53.34
2019-05-07T20:46:20.001Z,51.46
2019-05-07T20:48:47.505Z,52.52
2019-05-07T20:51:15.085Z,52.77
2019-05-07T20:53:58.208Z,52.11
2019-05-07T20:56:28.616Z,52.91
2019-05-07T20:58:57.275Z,52.76
2019-05-07T21:01:25.357Z,52.04
2019-05-07T21:03:53.344Z,52.74
2019-05-07T21:06:22.527Z,53.18
2019-05-07T21:08:50.054Z,52.68
2019-05-07T21:11:17.870Z,54.58
2019-05-07T21:13:45.249Z,55.34
2019-05-07T21:16:13.206Z,53.88
2019-05-07T21:18:42.114Z,55.62
2019-05-07T21:21:12.309Z,54.60
2019-05-07T21:23:39.482Z,54.08
2019-05-07T21:26:06.875Z,54.23
2019-05-07T21:28:34.129Z,53.70
2019-05-07T21:31:02.762Z,54.02
2019-05-07T21:33:32.237Z,55.15
2019-05-07T21:35:59.548Z,55.45
2019-05-07T21:38:27.217Z,55.51
2019-05-07T21:40:54.620Z,54.30
2019-05-07T21:43:29.917Z,54.89
2019-05-07T21:45:57.961Z,54.98
2019-05-07T21:48:25.263Z,57.10
2019-05-07T21:50:53.498Z,56.45
2019-05-07T21:53:26.640Z,54.98
2019-05-07T21:56:14.795Z,56.29
2019-05-07T21:58:48.515Z,55.33
2019-05-07T22:01:23.475Z,55.75
2019-05-07T22:03:52.554Z,56.66
2019-05-07T22:06:22.485Z,56.71
2019-05-07T22:08:49.735Z,55.54
2019-05-07T22:11:17.424Z,53.84
2019-05-07T22:13:44.851Z,56.71
2019-05-07T22:16:13.288Z,57.33
2019-05-07T22:18:42.726Z,55.85
2019-05-07T22:21:12.381Z,56.01
2019-05-07T22:23:42.565Z,57.25
2019-05-07T22:26:20.251Z,58.10
2019-05-07T22:28:39.274Z,57.34
2019-05-07T22:31:32.586Z,57.41
2019-05-07T22:34:09.917Z,59.13
2019-05-07T22:36:37.410Z,59.33
2019-05-07T22:39:05.479Z,60.37
2019-05-07T22:41:32.634Z,59.10
2019-05-07T22:44:02.270Z,57.80
2019-05-07T22:46:29.069Z,59.36
2019-05-07T22:48:56.222Z,59.55
2019-05-07T22:51:23.392Z,58.65
2019-05-07T22:53:50.543Z,61.61
2019-05-07T22:56:30.446Z,60.99
2019-05-07T22:58:50.343Z,60.73
2019-05-07T23:01:17.631Z,62.02
2019-05-07T23:03:44.778Z,61.86
2019-05-07T23:06:12.407Z,61.58
2019-05-07T23:08:42.287Z,59.49
2019-05-07T23:11:09.166Z,61.30
2019-05-07T23:13:36.698Z,61.44
2019-05-07T23:16:05.148Z,61.48
2019-05-07T23:18:32.507Z,62.06
2019-05-07T23:20:59.953Z,62.77
2019-05-07T23:23:27.204Z,62.59
2019-05-07T23:25:54.512Z,62.67
2019-05-07T23:28:22.955Z,63.30
2019-05-07T23:30:51.857Z,63.67
2019-05-07T23:33:32.163Z,64.39
2019-05-07T23:35:59.366Z,62.18
2019-05-07T23:38:26.578Z,65.02
2019-05-07T23:41:02.180Z,64.45
2019-05-07T23:43:29.453Z,64.89
2019-05-07T23:45:56.715Z,64.09
2019-05-07T23:48:23.979Z,63.98
2019-05-07T23:50:52.524Z,63.35
2019-05-07T23:53:22.349Z,63.58
2019-05-07T23:55:49.216Z,64.18
2019-05-07T23:58:16.360Z,63.28
